Terminal Aerodrome Forecast
Issued by NWS Upton, NY

Current Version | Previous Version | Text Only | Print | Product List | Glossary On
Versions: 1 2 3 4 5 6 7 8 9 10 11 12 13 14 15 16 17 18 19 20 21 22 23 24
000
FTUS41 KOKX 011700 RRA
TAFBDR
TAF
KBDR 011744Z 0118/0218 26006KT P6SM BKN040
     FM020200 VRB04KT 2SM -SN SCT008 SCT020 OVC040
     FM020500 VRB04KT 1SM -SN OVC008
     FM020800 09012KT 1SM -SN OVC005
      TEMPO 0209/0213 1/4SM +SN FZFG
     FM021300 06016KT 1SM FZRASN BR OVC004
     FM021600 02012KT 2SM FZRASN BR OVC004=

USA.gov is the U.S. government's official web portal to all federal, state and local government web resources and services.